Time;durP1;ratioP1;P1;durP2;ratioP2;P2;SDS_P1;SDS_P2;PMS_P1;PMS_P2;Temp;Humidity;BMP_temperature;BMP_pressure;BME280_temperature;BME280_humidity;BME280_pressure;Samples;Min_cycle;Max_cycle;Signal;HPM_P1;HPM_P2
2022/05/21 00:02:03;;;;;;;0.93;0.32;;;;;;;13.31;49.21;63373.06;5085706;28;20199;-73
2022/05/21 00:04:30;;;;;;;0.57;0.50;;;;;;;13.13;47.59;63354.91;5075845;28;20597;-74
2022/05/21 00:06:58;;;;;;;3.88;0.80;;;;;;;13.10;47.22;63348.75;5070216;28;20389;-73
2022/05/21 00:09:25;;;;;;;0.95;0.70;;;;;;;13.08;47.52;63344.59;5086262;28;20232;-75
2022/05/21 00:11:52;;;;;;;1.00;0.95;;;;;;;13.04;46.71;63345.59;5085769;28;20217;-75
2022/05/21 00:14:20;;;;;;;0.95;0.95;;;;;;;13.15;46.63;63359.53;5078314;28;20429;-74
2022/05/21 00:16:48;;;;;;;1.42;0.80;;;;;;;13.12;47.60;63353.34;5085639;28;20424;-74
2022/05/21 00:19:15;;;;;;;0.55;0.55;;;;;;;13.20;46.77;63356.56;5085401;28;20555;-74
2022/05/21 00:21:42;;;;;;;0.77;0.77;;;;;;;13.34;45.31;63374.13;5083436;28;20255;-74
2022/05/21 00:24:09;;;;;;;2.58;0.98;;;;;;;13.28;46.84;63370.47;5081622;28;20211;-75
2022/05/21 00:26:36;;;;;;;0.80;0.80;;;;;;;13.28;48.59;63367.94;5086996;28;20193;-74
2022/05/21 00:29:03;;;;;;;1.42;0.90;;;;;;;13.16;48.60;63358.03;5083719;28;20432;-74
2022/05/21 00:31:30;;;;;;;1.02;1.02;;;;;;;13.10;49.02;63346.69;5081734;28;20200;-74
2022/05/21 00:33:58;;;;;;;1.48;1.08;;;;;;;13.05;49.64;63346.63;5084571;28;20217;-73
2022/05/21 00:36:25;;;;;;;0.77;0.77;;;;;;;12.95;49.74;63333.66;5086648;28;20207;-74
2022/05/21 00:38:52;;;;;;;2.17;1.23;;;;;;;12.91;49.04;63329.00;5080031;28;20486;-73
2022/05/21 00:41:20;;;;;;;0.77;0.77;;;;;;;12.86;48.43;63329.44;5084940;28;20520;-75
2022/05/21 00:43:49;;;;;;;2.05;0.75;;;;;;;12.76;48.84;63317.03;5086710;28;20235;-73
2022/05/21 00:46:19;;;;;;;0.63;0.63;;;;;;;12.76;49.14;63316.53;5085308;28;20209;-74
2022/05/21 00:48:47;;;;;;;0.90;0.90;;;;;;;12.77;48.29;63315.50;5072950;28;20205;-74
2022/05/21 00:51:20;;;;;;;1.23;0.80;;;;;;;12.68;48.82;63305.69;5085014;28;20213;-73
2022/05/21 00:53:50;;;;;;;0.70;0.70;;;;;;;12.63;48.76;63303.03;5085745;28;20212;-74
2022/05/21 00:56:18;;;;;;;0.85;0.85;;;;;;;12.53;48.05;63290.63;5081454;28;20200;-74
2022/05/21 01:01:36;;;;;;;0.60;0.60;;;;;;;12.47;48.89;63281.34;5064605;28;20489;-74
2022/05/21 01:04:03;;;;;;;2.38;0.68;;;;;;;12.40;49.71;63277.16;5086028;28;20200;-74
2022/05/21 01:06:32;;;;;;;1.75;0.80;;;;;;;12.25;50.03;63261.09;5077024;28;20199;-74
2022/05/21 01:08:59;;;;;;;1.65;0.68;;;;;;;12.14;49.34;63250.22;5084862;28;20208;-74
2022/05/21 01:11:26;;;;;;;1.48;1.02;;;;;;;12.20;48.51;63258.97;5084771;28;20207;-74
2022/05/21 01:13:53;;;;;;;0.80;0.80;;;;;;;12.19;48.43;63262.53;5084463;28;20219;-74
2022/05/21 01:16:20;;;;;;;0.65;0.65;;;;;;;12.30;49.86;63269.34;5080618;28;20199;-73
2022/05/21 01:18:47;;;;;;;0.43;0.43;;;;;;;12.24;48.16;63262.59;5084484;28;20238;-73
2022/05/21 01:21:14;;;;;;;0.82;0.82;;;;;;;12.29;49.20;63270.84;5076754;28;20228;-74
2022/05/21 01:23:42;;;;;;;3.72;1.00;;;;;;;12.32;50.17;63270.91;5072249;28;20454;-75
2022/05/21 01:26:15;;;;;;;0.95;0.93;;;;;;;12.35;49.24;63279.13;5084308;28;20231;-73
2022/05/21 01:28:42;;;;;;;1.35;0.77;;;;;;;12.28;50.23;63267.28;5083765;28;20230;-73
2022/05/21 01:31:10;;;;;;;1.80;0.98;;;;;;;12.37;48.24;63274.03;5085669;28;20242;-74
2022/05/21 01:33:39;;;;;;;0.70;0.70;;;;;;;12.34;48.48;63270.41;5078001;28;20199;-73
2022/05/21 01:36:07;;;;;;;1.45;0.75;;;;;;;12.29;49.52;63268.31;5083953;28;20446;-74
2022/05/21 01:38:36;;;;;;;1.00;1.00;;;;;;;12.31;49.32;63267.81;5083483;28;20214;-73
2022/05/21 01:41:05;;;;;;;1.23;0.80;;;;;;;12.30;49.37;63269.34;5084189;28;20216;-74
2022/05/21 01:46:17;;;;;;;0.85;0.85;;;;;;;12.34;50.58;63270.94;5081010;28;20238;-74
2022/05/21 01:48:44;;;;;;;1.00;1.00;;;;;;;12.41;50.05;63280.22;5083630;28;20208;-73
2022/05/21 01:51:12;;;;;;;1.10;1.00;;;;;;;12.35;48.75;63274.00;5079297;28;20254;-74
2022/05/21 01:53:40;;;;;;;1.27;0.75;;;;;;;12.39;48.70;63273.06;5072297;28;20204;-74
2022/05/21 01:56:10;;;;;;;0.70;0.70;;;;;;;12.33;49.29;63277.56;5070711;28;20222;-74
2022/05/21 01:58:37;;;;;;;2.03;0.73;;;;;;;12.32;49.74;63268.84;5063822;28;20200;-74
2022/05/21 02:01:06;;;;;;;2.53;1.00;;;;;;;12.34;51.30;63272.97;5070481;28;20248;-74
2022/05/21 02:03:33;;;;;;;0.90;0.90;;;;;;;12.25;50.55;63263.66;5076981;28;20201;-74
2022/05/21 02:06:00;;;;;;;1.83;1.52;;;;;;;12.19;50.75;63260.50;5081774;28;20217;-74
2022/05/21 02:08:27;;;;;;;0.98;0.90;;;;;;;12.04;51.12;63241.88;5063554;28;20197;-74
2022/05/21 02:10:54;;;;;;;1.25;0.80;;;;;;;12.08;50.20;63241.44;5068262;28;20231;-75
2022/05/21 02:13:26;;;;;;;0.70;0.70;;;;;;;12.08;50.15;63251.13;5078578;28;20209;-75
2022/05/21 02:15:53;;;;;;;1.00;0.93;;;;;;;11.99;51.05;63234.66;5079923;28;20228;-75
2022/05/21 02:18:20;;;;;;;1.00;1.00;;;;;;;11.98;50.63;63236.16;5083497;28;20203;-74
2022/05/21 02:20:48;;;;;;;0.75;0.75;;;;;;;11.95;52.21;63227.97;5068868;28;20270;-75
2022/05/21 02:23:15;;;;;;;2.42;0.85;;;;;;;11.92;51.84;63226.88;5075430;28;20203;-74
2022/05/21 02:25:42;;;;;;;3.92;0.95;;;;;;;11.97;51.12;63232.59;5082662;28;20232;-76
2022/05/21 02:28:09;;;;;;;1.00;1.00;;;;;;;11.94;51.00;63224.38;5081282;28;20193;-75
2022/05/21 02:30:38;;;;;;;1.40;1.00;;;;;;;11.87;50.05;63227.34;5064257;28;20229;-75
2022/05/21 02:33:05;;;;;;;0.80;0.80;;;;;;;11.81;50.99;63221.09;5071132;28;20204;-75
2022/05/21 02:35:31;;;;;;;1.40;0.80;;;;;;;11.65;52.77;63199.41;5083226;28;20216;-75
2022/05/21 02:40:43;;;;;;;0.82;0.60;;;;;;;11.42;53.98;63178.13;5063406;28;20291;-74
2022/05/21 02:43:10;;;;;;;3.15;0.63;;;;;;;11.30;54.20;63166.22;5081352;28;20226;-75
2022/05/21 02:45:38;;;;;;;0.75;0.75;;;;;;;11.21;53.75;63156.91;5083172;28;20213;-75
2022/05/21 02:48:06;;;;;;;2.25;0.70;;;;;;;11.17;53.69;63149.69;5066621;28;20201;-74
2022/05/21 02:50:35;;;;;;;0.47;0.47;;;;;;;11.11;53.08;63149.09;5070580;28;20443;-74
2022/05/21 02:53:02;;;;;;;0.70;0.70;;;;;;;11.00;53.41;63135.16;5083112;28;20193;-75
2022/05/21 02:55:29;;;;;;;0.55;0.55;;;;;;;10.95;53.22;63129.47;5080719;28;20277;-73
2022/05/21 02:57:56;;;;;;;1.30;0.80;;;;;;;11.03;53.23;63132.63;5067963;28;20211;-74
2022/05/21 03:00:25;;;;;;;1.27;0.65;;;;;;;11.03;52.08;63132.63;5082964;28;20456;-74
2022/05/21 03:02:53;;;;;;;0.52;0.47;;;;;;;11.04;53.22;63139.31;5082629;28;20208;-74
2022/05/21 03:05:21;;;;;;;0.60;0.60;;;;;;;11.05;51.38;63139.81;5077686;28;20218;-74
2022/05/21 03:07:50;;;;;;;0.90;0.90;;;;;;;11.04;51.82;63136.75;5065376;28;20205;-74
2022/05/21 03:10:22;;;;;;;0.80;0.80;;;;;;;11.12;51.08;63142.47;5082843;28;20216;-74
2022/05/21 03:12:53;;;;;;;1.55;1.00;;;;;;;11.16;49.90;63148.66;5082841;28;20385;-75
2022/05/21 03:15:24;;;;;;;2.25;0.68;;;;;;;11.22;50.12;63159.97;5069967;28;20239;-73
2022/05/21 03:17:53;;;;;;;0.60;0.60;;;;;;;11.32;50.14;63160.63;5072552;28;20250;-74
2022/05/21 03:20:21;;;;;;;1.45;0.75;;;;;;;11.38;50.41;63168.88;5083619;28;20236;-75
2022/05/21 03:22:48;;;;;;;0.80;0.80;;;;;;;11.45;50.68;63181.25;5080433;28;20201;-74
2022/05/21 03:25:16;;;;;;;1.42;0.80;;;;;;;11.46;51.85;63179.72;5064767;28;20439;-75
2022/05/21 03:27:43;;;;;;;0.73;0.73;;;;;;;11.48;51.69;63181.78;5076020;28;20536;-74
2022/05/21 03:30:13;;;;;;;0.80;0.80;;;;;;;11.51;52.26;63182.34;5082498;28;20536;-74
2022/05/21 03:32:40;;;;;;;0.73;0.73;;;;;;;11.47;52.05;63183.31;5076204;28;20189;-74
2022/05/21 03:35:10;;;;;;;1.70;0.90;;;;;;;11.59;53.04;63190.66;5062624;28;20224;-74
2022/05/21 03:37:37;;;;;;;0.88;0.80;;;;;;;11.61;53.24;63198.31;5079205;28;20201;-73
2022/05/21 03:40:07;;;;;;;1.25;1.05;;;;;;;11.60;53.79;63192.19;5082365;28;20263;-74
2022/05/21 03:42:34;;;;;;;0.70;0.70;;;;;;;11.67;54.44;63200.97;5069471;28;20201;-74
2022/05/21 03:45:01;;;;;;;1.45;0.90;;;;;;;11.70;55.70;63209.69;5065068;28;20538;-73
2022/05/21 03:47:28;;;;;;;3.83;1.15;;;;;;;11.75;53.81;63209.81;5082421;28;20197;-74
2022/05/21 03:49:55;;;;;;;1.40;1.30;;;;;;;11.89;53.82;63223.78;5080483;28;20224;-74
2022/05/21 03:52:23;;;;;;;2.85;0.70;;;;;;;12.05;54.77;63243.44;5065600;28;20204;-74
2022/05/21 03:54:50;;;;;;;3.22;0.90;;;;;;;12.12;54.69;63247.59;5080699;28;20234;-75
2022/05/21 03:57:16;;;;;;;4.68;0.93;;;;;;;12.18;56.22;63256.91;5082670;28;20421;-74
2022/05/21 03:59:44;;;;;;;5.10;0.93;;;;;;;12.31;56.53;63269.84;5080418;28;20303;-74
2022/05/21 04:02:11;;;;;;;2.95;0.80;;;;;;;12.42;56.63;63278.72;5065770;28;20193;-73
2022/05/21 04:04:38;;;;;;;1.95;1.33;;;;;;;12.44;54.92;63281.28;5082506;28;20250;-74
2022/05/21 04:07:06;;;;;;;2.13;1.27;;;;;;;12.54;60.94;63291.16;5086189;28;20197;-74
2022/05/21 04:09:34;;;;;;;0.80;0.80;;;;;;;12.64;61.40;63302.03;5079200;28;20216;-74
2022/05/21 04:12:03;;;;;;;0.95;0.90;;;;;;;12.64;59.03;63301.53;5085480;28;20203;-74
2022/05/21 04:14:30;;;;;;;1.77;0.82;;;;;;;12.45;60.40;63284.38;5066231;28;20224;-74
2022/05/21 04:16:58;;;;;;;3.30;1.92;;;;;;;12.61;58.53;63298.41;5065960;28;20213;-74
2022/05/21 04:19:26;;;;;;;1.35;1.25;;;;;;;12.75;56.49;63316.00;5069305;28;20232;-73
2022/05/21 04:21:54;;;;;;;1.80;1.27;;;;;;;12.77;55.58;63315.00;5072544;28;20510;-74
2022/05/21 04:24:21;;;;;;;2.60;1.13;;;;;;;12.78;56.84;63319.13;5068349;28;20220;-74
2022/05/21 04:26:49;;;;;;;2.65;1.42;;;;;;;12.84;57.09;63324.81;5083589;28;20231;-75
2022/05/21 04:29:17;;;;;;;3.35;1.55;;;;;;;13.07;58.19;63346.13;5086140;28;20220;-74
2022/05/21 04:31:44;;;;;;;1.45;1.35;;;;;;;13.30;59.48;63374.59;5084815;28;20189;-74
2022/05/21 04:34:11;;;;;;;4.20;1.90;;;;;;;13.43;60.62;63382.97;5082742;28;20296;-74
2022/05/21 04:36:39;;;;;;;3.10;2.60;;;;;;;13.47;60.59;63389.66;5074975;28;20215;-74
2022/05/21 04:39:06;;;;;;;5.05;2.40;;;;;;;13.51;59.97;63393.81;5084968;28;20197;-74
2022/05/21 04:41:35;;;;;;;3.13;2.47;;;;;;;13.60;58.99;63403.16;5085186;28;20472;-75
2022/05/21 04:44:06;;;;;;;3.08;2.10;;;;;;;13.61;56.68;63402.16;5084382;28;20209;-77
2022/05/21 04:46:35;;;;;;;2.38;1.83;;;;;;;13.81;56.99;63422.91;5085751;28;20185;-74
2022/05/21 04:49:01;;;;;;;1.60;1.50;;;;;;;13.93;56.27;63434.34;5085962;28;20205;-75
2022/05/21 04:51:29;;;;;;;1.30;1.30;;;;;;;14.09;56.06;63451.47;5085494;28;20200;-75
2022/05/21 04:53:57;;;;;;;1.25;1.15;;;;;;;14.23;55.38;63465.47;5083755;28;20200;-78
2022/05/21 04:56:24;;;;;;;3.55;1.30;;;;;;;14.44;55.04;63487.31;5085539;28;20193;-75
2022/05/21 04:58:52;;;;;;;3.08;1.40;;;;;;;14.57;54.67;63500.81;5084145;28;20196;-75
2022/05/21 05:01:20;;;;;;;1.30;1.20;;;;;;;14.56;53.87;63502.34;5085415;28;20229;-74
2022/05/21 05:03:47;;;;;;;1.75;1.25;;;;;;;14.87;52.38;63534.53;5080724;28;20197;-74
2022/05/21 05:06:14;;;;;;;1.30;1.20;;;;;;;15.03;51.46;63551.16;5084943;28;20217;-75
2022/05/21 05:08:40;;;;;;;1.70;1.60;;;;;;;14.80;54.44;63532.41;5085263;28;20364;-74
2022/05/21 05:11:07;;;;;;;5.53;1.75;;;;;;;14.73;54.83;63517.94;5078410;28;20231;-74
2022/05/21 05:13:34;;;;;;;2.90;2.00;;;;;;;14.54;57.58;63498.22;5085087;28;20203;-74
2022/05/21 05:16:01;;;;;;;5.57;2.03;;;;;;;14.56;57.65;63502.34;5084280;28;20439;-74
2022/05/21 05:18:30;;;;;;;3.60;2.85;;;;;;;14.50;60.11;63499.19;5083099;28;20196;-74
2022/05/21 05:20:57;;;;;;;3.25;2.17;;;;;;;14.67;58.55;63509.16;5077350;28;20237;-73
2022/05/21 05:23:24;;;;;;;6.15;2.35;;;;;;;14.84;57.69;63531.94;5071319;28;20242;-75
2022/05/21 05:25:53;;;;;;;4.07;2.00;;;;;;;14.85;58.64;63532.47;5083439;28;20278;-76
2022/05/21 05:28:24;;;;;;;2.40;2.20;;;;;;;14.98;58.40;63548.53;5084443;28;20258;-74
2022/05/21 05:30:52;;;;;;;5.80;3.00;;;;;;;14.97;58.30;63544.94;5076701;28;20243;-74
2022/05/21 05:33:21;;;;;;;4.65;2.20;;;;;;;15.05;59.50;63551.19;5080230;28;20201;-75
2022/05/21 05:35:50;;;;;;;3.90;2.72;;;;;;;15.20;58.91;63563.69;5081359;28;20256;-74
2022/05/21 05:38:18;;;;;;;2.80;2.10;;;;;;;15.34;57.95;63582.84;5077956;28;20212;-75
2022/05/21 05:40:50;;;;;;;9.35;3.05;;;;;;;15.25;57.60;63570.94;5083076;28;20232;-75
2022/05/21 05:43:18;;;;;;;3.72;2.70;;;;;;;15.30;57.90;63576.13;5080541;28;20205;-74
2022/05/21 05:45:45;;;;;;;6.65;3.53;;;;;;;15.27;59.08;63573.03;5067900;28;20257;-75
2022/05/21 05:48:12;;;;;;;10.10;3.75;;;;;;;15.30;60.58;63576.13;5082453;28;20259;-75
2022/05/21 05:50:39;;;;;;;3.22;2.97;;;;;;;15.43;60.13;63592.75;5070410;28;20587;-74
2022/05/21 05:53:08;;;;;;;8.30;3.47;;;;;;;15.56;59.64;63600.63;5085411;28;20206;-74
2022/05/21 05:55:36;;;;;;;7.22;3.25;;;;;;;15.76;61.47;63627.06;5074169;28;20537;-75
2022/05/21 05:59:48;;;;;;;13.05;4.40;;;;;;;15.88;60.02;63644.66;5080298;28;21627;-74
2022/05/21 06:00:50;;;;;;;2.55;2.38;;;;;;;15.81;59.41;63626.59;5078826;28;20531;-73
2022/05/21 06:03:18;;;;;;;6.85;2.90;;;;;;;16.01;57.89;63653.03;5082963;28;20208;-76
2022/05/21 06:05:45;;;;;;;3.17;2.88;;;;;;;16.29;57.39;63679.06;5084320;28;20419;-75
2022/05/21 06:08:14;;;;;;;7.97;3.05;;;;;;;16.31;56.50;63683.72;5082609;28;20204;-78
2022/05/21 06:10:43;;;;;;;6.07;3.88;;;;;;;16.30;58.01;63682.69;5081511;28;20295;-77
2022/05/21 06:13:11;;;;;;;3.53;2.80;;;;;;;16.19;59.69;63671.78;5080773;28;20450;-76
2022/05/21 06:15:39;;;;;;;4.88;2.50;;;;;;;16.34;58.53;63686.34;5081511;28;20217;-74
2022/05/21 06:18:07;;;;;;;4.00;3.03;;;;;;;16.35;58.48;63690.47;5083842;28;20197;-74
2022/05/21 06:20:34;;;;;;;7.57;2.25;;;;;;;16.61;58.78;63709.81;5086145;28;20293;-74
2022/05/21 06:23:01;;;;;;;3.63;2.65;;;;;;;16.74;57.79;63725.91;5082241;28;20195;-75
2022/05/21 06:25:33;;;;;;;2.20;2.10;;;;;;;16.93;56.53;63742.59;5084996;28;20254;-74
2022/05/21 06:28:01;;;;;;;5.50;2.00;;;;;;;17.06;56.10;63758.69;5084301;28;20255;-73
2022/05/21 06:30:30;;;;;;;2.65;2.45;;;;;;;17.12;55.44;63764.94;5075596;28;20228;-73
2022/05/21 06:32:59;;;;;;;4.63;2.20;;;;;;;17.28;54.90;63784.69;5078965;28;20219;-74
2022/05/21 06:35:27;;;;;;;3.00;1.80;;;;;;;17.50;54.28;63809.16;5074711;28;20212;-74
2022/05/21 06:37:55;;;;;;;2.13;2.03;;;;;;;17.69;52.57;63824.31;5077374;28;20208;-73
2022/05/21 06:40:22;;;;;;;2.88;2.10;;;;;;;17.60;52.55;63814.41;5075965;28;20267;-76
2022/05/21 06:42:50;;;;;;;1.70;1.60;;;;;;;17.78;54.17;63841.41;5077576;28;20196;-74
2022/05/21 06:45:17;;;;;;;5.20;2.10;;;;;;;17.82;52.92;63840.44;5077959;28;20212;-74
2022/05/21 06:47:44;;;;;;;4.43;1.85;;;;;;;17.77;51.67;63832.13;5075364;28;20519;-74
2022/05/21 06:50:12;;;;;;;2.78;2.33;;;;;;;17.90;52.51;63851.31;5076076;28;20214;-74
2022/05/21 06:53:39;;;;;;;;;;;;;;;;;;;;;
2022/05/21 06:57:02;;;;;;;6.63;2.00;;;;;;;18.13;50.61;63870.13;4942195;28;20261;-74
2022/05/21 07:03:45;;;;;;;3.85;2.15;;;;;;;18.23;50.82;63888.28;4860170;29;20210;-75
2022/05/21 07:13:34;;;;;;;;;;;;;;;;;;;;;
2022/05/21 07:16:59;;;;;;;;;;;;;;;;;;;;;
2022/05/21 07:30:17;;;;;;;1.60;1.50;;;;;;;18.80;49.60;63942.03;5067890;22;20230;-74
2022/05/21 07:50:08;;;;;;;4.32;1.75;;;;;;;19.98;46.58;64064.59;5027327;22;20232;-74
2022/05/21 08:20:16;;;;;;;;;;;;;;;;;;;;;
2022/05/21 08:30:34;;;;;;;;;;;;;;;;;;;;;
2022/05/21 08:54:07;;;;;;;12.50;4.05;;;;;;;21.43;42.67;64215.44;4829137;29;20207;-74
2022/05/21 10:06:51;;;;;;;16.40;2.75;;;;;;;24.73;34.29;64561.22;4804015;29;20511;-75
2022/05/21 10:12:14;;;;;;;4.68;2.30;;;;;;;24.57;32.50;64542.34;5102861;28;20206;-75
2022/05/21 10:14:48;;;;;;;4.70;1.92;;;;;;;24.82;31.88;64565.41;5092561;28;20271;-75
2022/05/21 10:17:23;;;;;;;5.38;2.00;;;;;;;24.87;32.22;64573.78;5107460;28;20510;-74
2022/05/21 10:19:56;;;;;;;4.53;1.80;;;;;;;24.83;33.46;64572.19;5105756;28;20219;-75
2022/05/21 10:22:38;;;;;;;2.20;1.92;;;;;;;24.87;33.06;64575.84;5103605;28;20265;-73
2022/05/21 10:25:09;;;;;;;2.80;2.22;;;;;;;25.11;31.81;64601.00;5100919;28;20562;-75
2022/05/21 10:27:51;;;;;;;2.00;1.90;;;;;;;25.25;33.29;64610.44;5102230;28;20195;-74
2022/05/21 10:30:27;;;;;;;2.22;2.10;;;;;;;25.43;31.84;64631.41;5103660;28;20222;-75
2022/05/21 10:33:10;;;;;;;2.03;1.92;;;;;;;25.54;30.06;64640.84;5101581;28;20427;-74
2022/05/21 10:35:57;;;;;;;8.82;2.03;;;;;;;25.69;29.03;64656.56;5102085;28;20294;-75
2022/05/21 10:38:54;;;;;;;1.38;1.38;;;;;;;25.84;27.75;64677.50;5104015;28;20468;-75
2022/05/21 10:41:44;;;;;;;2.85;1.75;;;;;;;25.97;28.23;64690.63;5100662;28;20287;-74
2022/05/21 10:44:25;;;;;;;2.10;1.92;;;;;;;25.93;27.81;64684.34;5102972;28;20417;-74
2022/05/21 10:47:03;;;;;;;3.22;2.05;;;;;;;25.85;28.08;64681.16;5103072;28;20271;-74
2022/05/21 10:50:06;;;;;;;4.47;1.60;;;;;;;26.03;29.68;64696.91;5103316;28;20218;-75
2022/05/21 10:52:47;;;;;;;2.10;1.52;;;;;;;26.15;27.81;64709.50;5087421;28;20202;-74
2022/05/21 10:55:18;;;;;;;2.15;1.40;;;;;;;26.16;26.84;64711.06;5102805;28;20335;-74
2022/05/21 10:58:09;;;;;;;1.92;1.83;;;;;;;26.17;26.04;64711.59;5102790;28;20195;-74
2022/05/21 11:00:43;;;;;;;4.07;1.30;;;;;;;26.04;23.86;64695.88;5100042;28;20267;-75
2022/05/21 11:03:35;;;;;;;1.33;1.20;;;;;;;26.18;23.46;64715.25;5102373;28;20248;-74
2022/05/21 11:06:14;;;;;;;1.10;1.10;;;;;;;26.33;24.28;64723.16;5101773;28;20219;-75
2022/05/21 11:08:49;;;;;;;1.20;1.20;;;;;;;26.36;23.97;64728.91;5099442;28;20207;-74
2022/05/21 11:11:28;;;;;;;1.20;1.10;;;;;;;26.50;23.12;64743.59;5102040;28;20198;-74
2022/05/21 11:14:00;;;;;;;2.40;1.27;;;;;;;26.46;24.58;64741.47;5102374;28;20200;-76
2022/05/21 11:16:33;;;;;;;1.15;1.00;;;;;;;26.57;24.52;64747.78;5102629;28;20202;-76
2022/05/21 11:19:07;;;;;;;1.75;1.05;;;;;;;26.50;23.70;64748.28;5096823;28;20368;-75
2022/05/21 11:21:39;;;;;;;1.70;1.23;;;;;;;26.56;23.46;64749.88;5102069;28;20233;-75
2022/05/21 11:24:13;;;;;;;2.38;1.13;;;;;;;26.60;24.61;64750.94;5102566;28;20215;-74
2022/05/21 11:26:50;;;;;;;2.75;1.42;;;;;;;26.77;25.67;64779.22;5096477;28;20206;-74
2022/05/21 11:29:27;;;;;;;1.80;1.63;;;;;;;26.93;24.51;64788.16;5102163;28;20215;-75
2022/05/21 11:37:31;;;;;;;2.47;1.25;;;;;;;27.09;24.95;64812.81;5097775;28;20309;-74
2022/05/21 11:40:01;;;;;;;3.35;1.75;;;;;;;26.87;25.71;64787.63;5101648;28;20214;-76
2022/05/21 11:42:31;;;;;;;1.70;1.60;;;;;;;26.99;25.72;64799.69;5102420;28;20223;-74
2022/05/21 11:45:14;;;;;;;1.23;1.10;;;;;;;27.13;25.53;64812.28;5099441;28;20286;-74
2022/05/21 11:47:50;;;;;;;1.13;1.13;;;;;;;27.41;26.24;64840.63;5082289;28;20202;-75
2022/05/21 11:50:26;;;;;;;1.50;1.40;;;;;;;27.65;26.56;64863.72;5081765;28;20220;-74
2022/05/21 11:53:06;;;;;;;1.38;1.35;;;;;;;27.83;25.85;64882.09;5084075;28;20206;-74
2022/05/21 11:55:57;;;;;;;2.13;1.92;;;;;;;27.78;26.88;64882.09;5100959;28;20215;-74
2022/05/21 11:58:27;;;;;;;2.47;1.52;;;;;;;27.78;27.31;64879.47;5102414;28;20461;-74
2022/05/21 12:00:55;;;;;;;1.30;1.30;;;;;;;27.87;26.55;64892.03;5102040;28;20259;-75
2022/05/21 12:03:45;;;;;;;2.47;1.30;;;;;;;27.71;25.68;64874.75;5096826;28;20535;-75
2022/05/21 12:06:31;;;;;;;3.10;1.60;;;;;;;27.38;27.70;64835.41;5081697;28;20224;-74
2022/05/21 12:09:24;;;;;;;1.38;1.30;;;;;;;27.78;27.16;64882.09;5081457;28;20202;-75
2022/05/21 12:11:52;;;;;;;2.78;1.60;;;;;;;28.16;26.52;64919.88;5085353;28;20199;-74
2022/05/21 12:14:29;;;;;;;3.75;1.98;;;;;;;28.14;26.57;64920.44;5099439;28;20243;-74
2022/05/21 12:16:59;;;;;;;2.03;1.77;;;;;;;28.35;27.84;64939.84;5101889;28;20192;-74
2022/05/21 12:20:04;;;;;;;8.68;5.80;;;;;;;28.38;26.86;64945.63;5102011;28;20215;-74
2022/05/21 12:22:52;;;;;;;1.42;1.30;;;;;;;28.40;25.98;64947.72;5102546;28;20467;-75
2022/05/21 12:25:53;;;;;;;2.00;1.90;;;;;;;28.52;26.70;64954.56;5105434;28;20211;-74
2022/05/21 12:28:21;;;;;;;2.25;1.73;;;;;;;28.12;27.41;64915.16;5099244;28;20203;-74
2022/05/21 12:30:58;;;;;;;1.90;1.80;;;;;;;28.08;26.33;64911.50;5104607;28;20278;-75
2022/05/21 12:33:33;;;;;;;2.13;1.95;;;;;;;27.96;27.58;64901.53;5099671;28;20199;-74
2022/05/21 12:36:07;;;;;;;3.30;1.42;;;;;;;28.07;26.75;64912.53;5105000;28;20233;-75
2022/05/21 12:38:37;;;;;;;5.45;1.75;;;;;;;28.20;28.55;64926.19;5086458;28;20212;-74
2022/05/21 12:41:11;;;;;;;5.30;1.83;;;;;;;28.15;28.21;64915.69;5096769;28;20252;-74
2022/05/21 12:43:45;;;;;;;2.13;2.03;;;;;;;28.22;27.50;64926.19;5095534;28;20218;-74
2022/05/21 12:46:21;;;;;;;7.35;2.40;;;;;;;28.21;28.51;64927.78;5091099;28;20233;-75
2022/05/21 12:48:49;;;;;;;4.15;1.73;;;;;;;28.36;28.88;64935.66;5093063;28;20409;-75
2022/05/21 12:51:28;;;;;;;1.50;1.38;;;;;;;28.47;27.46;64951.41;5091703;28;20218;-74
2022/05/21 12:53:56;;;;;;;2.22;1.77;;;;;;;28.30;27.67;64937.22;5095813;28;20195;-75
2022/05/21 12:56:29;;;;;;;1.67;1.45;;;;;;;28.46;29.07;64952.97;5095390;28;20199;-74
2022/05/21 12:59:10;;;;;;;1.85;1.70;;;;;;;28.23;28.74;64929.34;5094778;28;20518;-74
2022/05/21 13:01:43;;;;;;;2.60;1.73;;;;;;;28.54;26.65;64956.69;5095055;28;20201;-75
2022/05/21 13:04:26;;;;;;;3.60;2.00;;;;;;;28.90;27.33;64996.56;5093547;28;20200;-74
2022/05/21 13:06:59;;;;;;;2.85;1.90;;;;;;;28.63;28.92;64966.13;5091323;28;20215;-74
2022/05/21 13:09:26;;;;;;;2.17;1.50;;;;;;;28.78;27.76;64981.34;5090935;28;20257;-73
2022/05/21 13:11:54;;;;;;;1.45;1.35;;;;;;;29.26;26.07;65029.69;5096117;28;20223;-75
2022/05/21 13:14:35;;;;;;;5.15;1.55;;;;;;;28.64;27.06;64972.41;5090834;28;20272;-75
2022/05/21 13:17:03;;;;;;;1.52;1.52;;;;;;;28.95;26.37;65004.44;5089850;28;20207;-75
2022/05/21 13:19:55;;;;;;;2.10;1.38;;;;;;;29.29;25.82;65040.19;5091728;28;20225;-74
2022/05/21 13:22:37;;;;;;;1.40;1.40;;;;;;;29.04;26.88;65013.91;5090673;28;20250;-74
2022/05/21 13:25:07;;;;;;;2.17;1.20;;;;;;;29.58;26.23;65062.28;5091914;28;20223;-73
2022/05/21 13:27:45;;;;;;;3.10;1.30;;;;;;;29.96;25.76;65107.47;5093355;28;20207;-73
2022/05/21 13:30:18;;;;;;;1.90;1.80;;;;;;;29.59;26.08;65071.19;5099157;28;20238;-74
2022/05/21 13:32:56;;;;;;;1.65;1.65;;;;;;;30.04;24.88;65113.78;5094100;28;20212;-75
2022/05/21 13:35:29;;;;;;;2.95;1.52;;;;;;;30.34;25.27;65150.06;5091979;28;20223;-75
2022/05/21 13:37:56;;;;;;;2.03;1.92;;;;;;;30.10;25.13;65124.81;5089860;28;20520;-76
2022/05/21 13:40:26;;;;;;;1.83;1.50;;;;;;;29.60;25.94;65070.13;5096232;28;20241;-76
2022/05/21 13:42:56;;;;;;;1.73;1.63;;;;;;;29.96;25.90;65107.47;5093946;28;20247;-75
2022/05/21 13:45:28;;;;;;;1.48;1.38;;;;;;;30.14;27.04;65129.03;5091732;28;20238;-74
2022/05/21 13:48:01;;;;;;;1.50;1.50;;;;;;;30.79;25.75;65192.16;5095553;28;20203;-74
2022/05/21 13:50:32;;;;;;;1.50;1.42;;;;;;;30.93;24.79;65208.97;5093205;28;20211;-75
2022/05/21 13:53:00;;;;;;;1.80;1.70;;;;;;;31.39;24.51;65263.19;5093864;28;20253;-75
2022/05/21 13:55:28;;;;;;;1.50;1.50;;;;;;;31.63;24.82;65282.66;5092161;28;20212;-74
2022/05/21 13:58:14;;;;;;;1.20;1.20;;;;;;;31.64;24.20;65281.06;5089158;28;20226;-73
2022/05/21 14:00:42;;;;;;;3.15;1.80;;;;;;;31.55;24.30;65274.22;5092279;28;20220;-74
2022/05/21 14:03:27;;;;;;;3.03;1.60;;;;;;;31.77;24.38;65294.22;5096265;28;20415;-74
2022/05/21 14:05:56;;;;;;;1.70;1.60;;;;;;;31.05;24.61;65221.59;5103451;28;20222;-75
2022/05/21 14:08:31;;;;;;;3.05;1.90;;;;;;;30.28;26.17;65144.28;5100705;28;20203;-73
2022/05/21 14:11:01;;;;;;;1.50;1.50;;;;;;;30.23;26.36;65139.03;5099722;28;20225;-74
2022/05/21 14:13:35;;;;;;;2.17;1.42;;;;;;;29.96;26.53;65110.63;5095612;28;20204;-74
2022/05/21 14:16:08;;;;;;;1.55;1.55;;;;;;;30.79;25.19;65194.25;5093849;28;20213;-75
2022/05/21 14:18:37;;;;;;;3.67;1.75;;;;;;;30.62;25.63;65171.63;5098709;28;20222;-74
2022/05/21 14:21:18;;;;;;;2.60;1.33;;;;;;;30.99;25.43;65215.84;5099796;28;20230;-77
2022/05/21 14:23:46;;;;;;;3.10;2.80;;;;;;;31.58;25.87;65277.41;5082695;28;20228;-75
2022/05/21 14:26:21;;;;;;;2.47;1.55;;;;;;;31.93;24.25;65314.25;5096367;28;20423;-74
2022/05/21 14:28:48;;;;;;;2.00;1.80;;;;;;;31.61;25.03;65277.91;5092577;28;20200;-74
2022/05/21 14:31:34;;;;;;;1.92;1.60;;;;;;;31.13;25.89;65230.03;5090338;28;20274;-74
2022/05/21 14:34:04;;;;;;;1.48;1.48;;;;;;;31.06;26.01;65220.03;5099127;28;20199;-74
2022/05/21 14:36:36;;;;;;;1.90;1.80;;;;;;;31.60;25.01;65279.50;5100524;28;20544;-73
2022/05/21 14:39:04;;;;;;;1.83;1.73;;;;;;;31.99;24.93;65320.03;5082146;28;20196;-74
2022/05/21 14:41:33;;;;;;;1.70;1.67;;;;;;;32.19;24.56;65346.34;5083672;28;20196;-74
2022/05/21 14:44:01;;;;;;;2.10;1.42;;;;;;;31.72;24.62;65291.59;5091465;28;20231;-74
2022/05/21 14:49:14;;;;;;;1.17;1.17;;;;;;;30.62;25.98;65176.88;5093516;28;20213;-74
2022/05/21 14:54:31;;;;;;;1.55;1.48;;;;;;;31.30;24.86;65248.44;5098449;28;20555;-74
2022/05/21 14:56:57;;;;;;;1.48;1.48;;;;;;;31.84;24.85;65304.75;5101659;28;20244;-74
2022/05/21 14:59:24;;;;;;;4.10;1.80;;;;;;;31.86;24.17;65306.34;5101607;28;20215;-73
2022/05/21 15:01:53;;;;;;;2.55;1.75;;;;;;;32.10;25.19;65332.13;5091532;28;20211;-73
2022/05/21 15:04:20;;;;;;;6.03;2.00;;;;;;;31.88;24.66;65305.81;5101661;28;20233;-74
2022/05/21 15:06:47;;;;;;;2.38;2.17;;;;;;;31.97;24.99;65318.47;5095351;28;20508;-73
2022/05/21 15:09:15;;;;;;;1.58;1.55;;;;;;;32.31;24.10;65356.88;5084410;28;20223;-74